Flight Track Log - Related Links

Times and Time Zones

All times are in EDT time to prevent confusion due to time zone crossing. See the SWA1021 flight status page for this flight to view local times or setup timezone preferences in your user account.

Time Position Orientation Groundspeed Altitude Reporting Facility
EDT Latitude Longitude Course Direction KTS MPH feet Rate Location/Type
Fri 10:10:24 AM 37.7300 -122.2589 308° West 175 201 1,300  Level Oakland Center
Fri 10:11:25 AM 37.7644 -122.3156 308° West 206 237 3,700 2,410 Climbing Oakland Center
Fri 10:12:26 AM 37.7511 -122.3964 258° West 238 274 6,200 2,115 Climbing Oakland Center
Fri 10:13:27 AM 37.7028 -122.4514 222° Southwest 258 297 8,000 1,721 Climbing Oakland Center
Fri 10:14:28 AM 37.6319 -122.4708 192° South 265 305 9,700 2,262 Climbing Oakland Center
Fri 10:15:29 AM 37.5567 -122.4586 173° South 271 312 12,600 2,066 Climbing Oakland Center
Fri 10:16:30 AM 37.4861 -122.3981 146° Southeast 329 379 13,900 1,574 Climbing Oakland Center
Fri 10:17:31 AM 37.4125 -122.2969 132° Southeast 389 448 15,800 1,869 Climbing Oakland Center
Fri 10:18:32 AM 37.3328 -122.1875 132° Southeast 420 483 17,700 2,361 Climbing Oakland Center
Fri 10:19:33 AM 37.2333 -122.0525 133° Southeast 440 506 20,600 2,164 Climbing Oakland Center
Fri 10:20:34 AM 37.1464 -121.9344 133° Southeast 460 529 22,100 1,721 Climbing Oakland Center
Fri 10:21:35 AM 37.0564 -121.8131 133° Southeast 476 548 24,100 1,672 Climbing Oakland Center
Fri 10:22:36 AM 36.9636 -121.6911 134° Southeast 482 555 25,500 1,426 Climbing Oakland Center
Fri 10:23:37 AM 36.8681 -121.5644 133° Southeast 497 572 27,000 1,574 Climbing Oakland Center
Fri 10:24:38 AM 36.7678 -121.4322 133° Southeast 506 582 28,700 1,623 Climbing Oakland Center
Fri 10:25:39 AM 36.6725 -121.3025 132° Southeast 507 583 30,300 1,770 Climbing Oakland Center
Fri 10:26:40 AM 36.5767 -121.1767 133° Southeast 505 581 32,300 1,512 Climbing Oakland Center
Fri 10:27:42 AM 36.4822 -121.0517 133° Southeast 499 574 33,400 1,122 Climbing Oakland Center
Fri 10:28:43 AM 36.3853 -120.9269 134° Southeast 501 577 34,600 1,033 Climbing Oakland Center
Fri 10:29:44 AM 36.2886 -120.8003 133° Southeast 504 580 35,500 934 Climbing Oakland Center
Fri 10:30:45 AM 36.1900 -120.6728 134° Southeast 511 588 36,500 738 Climbing Oakland Center
Fri 10:31:46 AM 36.0925 -120.5472 134° Southeast 507 583 37,000 246 Climbing Oakland Center
Fri 10:32:47 AM 35.9958 -120.4222 134° Southeast 505 581 37,000  Level Oakland Center
Fri 10:33:48 AM 35.8811 -120.2761 134° Southeast 493 567 37,000  Level Oakland Center
Fri 10:34:49 AM 35.7847 -120.1553 135° Southeast 492 566 37,000  Level Oakland Center
Fri 10:35:51 AM 35.6911 -120.0342 134° Southeast 486 559 37,000  Level Oakland Center
Fri 10:36:52 AM 35.5869 -119.9247 139° Southeast 491 565 37,000  Level Oakland Center
Fri 10:37:53 AM 35.4728 -119.8292 146° Southeast 491 565 37,000  Level Oakland Center
Fri 10:38:54 AM 35.3597 -119.7319 145° Southeast 492 566 37,000  Level Oakland Center
Fri 10:39:50 AM 35.2706 -119.6547 145° Southeast 490 564 37,000 -564 Level Los Angeles Center
Fri 10:40:51 AM 35.1600 -119.5592 145° Southeast 487 560 35,900 -1,220 Descending Los Angeles Center
Fri 10:41:53 AM 35.0286 -119.4453 145° Southeast 484 557 34,500 -2,250 Descending Los Angeles Center
Fri 10:43:07 AM 34.9097 -119.3447 145° Southeast 511 588 30,800 -3,485 Descending Los Angeles Center
Fri 10:44:09 AM 34.7675 -119.2236 145° Southeast 518 596 26,600 -3,415 Descending Los Angeles Center
Fri 10:45:10 AM 34.6553 -119.1306 146° Southeast 491 565 23,800 -2,927 Descending Los Angeles Center
Fri 10:46:12 AM 34.5339 -119.0308 146° Southeast 460 529 20,600 -2,806 Descending Los Angeles Center
Fri 10:47:14 AM 34.4328 -118.9458 145° Southeast 441 507 18,000 -2,537 Descending Los Angeles Center
Fri 10:48:15 AM 34.3358 -118.8731 148° Southeast 410 472 15,400 -1,951 Descending Los Angeles Center
Fri 10:49:17 AM 34.2317 -118.8356 163° South 388 447 14,000 -1,258 Descending Los Angeles Center
Fri 10:50:19 AM 34.1392 -118.8019 163° South 346 398 12,800 -1,220 Descending Los Angeles Center
Fri 10:51:20 AM 34.0506 -118.7622 160° South 319 367 11,500 -1,268 Descending Los Angeles Center
Fri 10:52:22 AM 34.0292 -118.6647 105° East 287 330 10,200 -1,452 Descending Los Angeles Center
Fri 10:53:24 AM 34.0211 -118.5742 96° East 275 316 8,500 -1,512 Descending Los Angeles Center
Fri 10:54:25 AM 34.0119 -118.4833 97° East 273 314 7,100 -1,024 Descending Los Angeles Center
Fri 10:55:27 AM 34.0172 -118.4017 86° East 245 282 6,400 -1,113 Descending Los Angeles Center
Fri 10:56:29 AM 34.0228 -118.3244 85° East 232 267 4,800 -1,161 Descending Los Angeles Center
Fri 10:57:31 AM 34.0283 -118.2478 85° East 230 265 4,000 -726 Descending Los Angeles Center
Fri 10:58:33 AM 34.0150 -118.1819 104° East 237 273 3,300 -878 Descending Los Angeles Center
Fri 10:59:34 AM 33.9722 -118.2144 212° Southwest 228 262 2,200 -585 Descending Los Angeles Center
Fri 11:00:36 AM 33.9650 -118.2844 263° West 218 251 2,100 -629 Descending Los Angeles Center
Fri 11:01:38 AM 33.9581 -118.3542 263° West 188 216 900 -968 Descending Los Angeles Center
Fri 11:02:40 AM 33.9522 -118.4008 261° West 157 181 100 -774 Descending Los Angeles Center
Fri 11:04:00 AM 33.9425 -118.4081 228° Southwest  Level Estimated
Fri 11:11:00 AM 33.9425 -118.4081 228° Southwest  Level Estimated

Login

Don't have an account? Register now (free) for customized features, flight alerts, and more!